sensor_id;sensor_type;location;lat;lon;timestamp;P1;durP1;ratioP1;P2;durP2;ratioP2
69226;SDS011;56334;52.398;7.552;2024-03-08T00:00:43;39.08;;;14.23;;
69226;SDS011;56334;52.398;7.552;2024-03-08T00:03:09;36.28;;;14.50;;
69226;SDS011;56334;52.398;7.552;2024-03-08T00:05:35;37.95;;;15.82;;
69226;SDS011;56334;52.398;7.552;2024-03-08T00:08:03;34.08;;;14.25;;
69226;SDS011;56334;52.398;7.552;2024-03-08T00:10:29;40.97;;;14.20;;
69226;SDS011;56334;52.398;7.552;2024-03-08T00:12:55;35.42;;;15.43;;
69226;SDS011;56334;52.398;7.552;2024-03-08T00:15:22;34.53;;;14.75;;
69226;SDS011;56334;52.398;7.552;2024-03-08T00:17:48;38.17;;;15.13;;
69226;SDS011;56334;52.398;7.552;2024-03-08T00:20:15;39.08;;;15.10;;
69226;SDS011;56334;52.398;7.552;2024-03-08T00:22:44;35.80;;;14.25;;
69226;SDS011;56334;52.398;7.552;2024-03-08T00:25:11;35.75;;;14.65;;
69226;SDS011;56334;52.398;7.552;2024-03-08T00:27:37;37.05;;;14.75;;
69226;SDS011;56334;52.398;7.552;2024-03-08T00:30:03;40.13;;;15.38;;
69226;SDS011;56334;52.398;7.552;2024-03-08T00:32:30;38.22;;;14.95;;
69226;SDS011;56334;52.398;7.552;2024-03-08T00:34:56;33.28;;;12.50;;
69226;SDS011;56334;52.398;7.552;2024-03-08T00:37:24;35.78;;;14.55;;
69226;SDS011;56334;52.398;7.552;2024-03-08T00:39:50;37.20;;;14.75;;
69226;SDS011;56334;52.398;7.552;2024-03-08T00:42:17;38.63;;;14.60;;
69226;SDS011;56334;52.398;7.552;2024-03-08T00:44:43;34.95;;;14.43;;
69226;SDS011;56334;52.398;7.552;2024-03-08T00:47:09;35.90;;;15.02;;
69226;SDS011;56334;52.398;7.552;2024-03-08T00:49:35;38.22;;;15.63;;
69226;SDS011;56334;52.398;7.552;2024-03-08T00:52:03;37.30;;;15.77;;
69226;SDS011;56334;52.398;7.552;2024-03-08T00:54:30;42.85;;;15.95;;
69226;SDS011;56334;52.398;7.552;2024-03-08T00:56:56;37.17;;;15.13;;
69226;SDS011;56334;52.398;7.552;2024-03-08T00:59:23;37.17;;;15.05;;
69226;SDS011;56334;52.398;7.552;2024-03-08T01:01:49;33.55;;;14.57;;
69226;SDS011;56334;52.398;7.552;2024-03-08T01:04:15;38.25;;;15.13;;
69226;SDS011;56334;52.398;7.552;2024-03-08T01:06:41;41.10;;;16.50;;
69226;SDS011;56334;52.398;7.552;2024-03-08T01:09:10;39.03;;;15.10;;
69226;SDS011;56334;52.398;7.552;2024-03-08T01:11:36;37.55;;;14.63;;
69226;SDS011;56334;52.398;7.552;2024-03-08T01:14:03;38.90;;;14.70;;
69226;SDS011;56334;52.398;7.552;2024-03-08T01:16:29;39.08;;;15.00;;
69226;SDS011;56334;52.398;7.552;2024-03-08T01:18:55;40.45;;;15.68;;
69226;SDS011;56334;52.398;7.552;2024-03-08T01:21:21;37.95;;;15.57;;
69226;SDS011;56334;52.398;7.552;2024-03-08T01:23:47;39.03;;;14.95;;
69226;SDS011;56334;52.398;7.552;2024-03-08T01:26:13;34.80;;;14.00;;
69226;SDS011;56334;52.398;7.552;2024-03-08T01:31:22;36.38;;;14.82;;
69226;SDS011;56334;52.398;7.552;2024-03-08T01:33:48;37.08;;;14.25;;
69226;SDS011;56334;52.398;7.552;2024-03-08T01:36:15;36.28;;;15.40;;
69226;SDS011;56334;52.398;7.552;2024-03-08T01:38:42;35.78;;;15.85;;
69226;SDS011;56334;52.398;7.552;2024-03-08T01:41:08;36.25;;;15.40;;
69226;SDS011;56334;52.398;7.552;2024-03-08T01:43:34;38.30;;;15.32;;
69226;SDS011;56334;52.398;7.552;2024-03-08T01:46:00;38.38;;;15.75;;
69226;SDS011;56334;52.398;7.552;2024-03-08T01:48:27;40.83;;;15.55;;
69226;SDS011;56334;52.398;7.552;2024-03-08T01:50:54;35.78;;;15.45;;
69226;SDS011;56334;52.398;7.552;2024-03-08T01:53:21;36.58;;;15.43;;
69226;SDS011;56334;52.398;7.552;2024-03-08T01:55:48;40.25;;;15.38;;
69226;SDS011;56334;52.398;7.552;2024-03-08T01:58:14;40.50;;;15.45;;
69226;SDS011;56334;52.398;7.552;2024-03-08T02:00:44;40.83;;;16.08;;
69226;SDS011;56334;52.398;7.552;2024-03-08T02:03:10;38.25;;;15.65;;
69226;SDS011;56334;52.398;7.552;2024-03-08T02:05:37;41.83;;;16.45;;
69226;SDS011;56334;52.398;7.552;2024-03-08T02:08:05;36.30;;;14.88;;
69226;SDS011;56334;52.398;7.552;2024-03-08T02:10:39;41.30;;;16.52;;
69226;SDS011;56334;52.398;7.552;2024-03-08T02:13:04;41.28;;;16.85;;
69226;SDS011;56334;52.398;7.552;2024-03-08T02:15:49;42.72;;;16.85;;
69226;SDS011;56334;52.398;7.552;2024-03-08T02:18:15;37.03;;;14.65;;
69226;SDS011;56334;52.398;7.552;2024-03-08T02:20:54;41.63;;;16.60;;
69226;SDS011;56334;52.398;7.552;2024-03-08T02:23:21;37.92;;;14.80;;
69226;SDS011;56334;52.398;7.552;2024-03-08T02:25:47;39.65;;;14.65;;
69226;SDS011;56334;52.398;7.552;2024-03-08T02:28:14;40.42;;;16.45;;
69226;SDS011;56334;52.398;7.552;2024-03-08T02:30:40;41.35;;;17.58;;
69226;SDS011;56334;52.398;7.552;2024-03-08T02:33:07;40.03;;;16.63;;
69226;SDS011;56334;52.398;7.552;2024-03-08T02:35:36;39.08;;;15.60;;
69226;SDS011;56334;52.398;7.552;2024-03-08T02:38:02;36.47;;;15.48;;
69226;SDS011;56334;52.398;7.552;2024-03-08T02:40:29;40.75;;;16.42;;
69226;SDS011;56334;52.398;7.552;2024-03-08T02:42:55;38.10;;;15.48;;
69226;SDS011;56334;52.398;7.552;2024-03-08T02:45:21;36.13;;;15.98;;
69226;SDS011;56334;52.398;7.552;2024-03-08T02:47:47;40.50;;;15.88;;
69226;SDS011;56334;52.398;7.552;2024-03-08T02:50:15;43.10;;;16.80;;
69226;SDS011;56334;52.398;7.552;2024-03-08T02:52:42;36.20;;;15.90;;
69226;SDS011;56334;52.398;7.552;2024-03-08T02:55:09;41.33;;;16.63;;
69226;SDS011;56334;52.398;7.552;2024-03-08T02:57:35;38.88;;;15.27;;
69226;SDS011;56334;52.398;7.552;2024-03-08T03:00:02;41.25;;;16.58;;
69226;SDS011;56334;52.398;7.552;2024-03-08T03:02:29;36.25;;;15.38;;
69226;SDS011;56334;52.398;7.552;2024-03-08T03:04:55;42.63;;;17.92;;
69226;SDS011;56334;52.398;7.552;2024-03-08T03:07:21;39.45;;;16.50;;
69226;SDS011;56334;52.398;7.552;2024-03-08T03:09:47;40.45;;;16.42;;
69226;SDS011;56334;52.398;7.552;2024-03-08T03:12:14;40.95;;;17.25;;
69226;SDS011;56334;52.398;7.552;2024-03-08T03:14:40;42.75;;;16.60;;
69226;SDS011;56334;52.398;7.552;2024-03-08T03:17:06;37.58;;;15.60;;
69226;SDS011;56334;52.398;7.552;2024-03-08T03:19:32;39.15;;;16.77;;
69226;SDS011;56334;52.398;7.552;2024-03-08T03:21:58;39.58;;;15.70;;
69226;SDS011;56334;52.398;7.552;2024-03-08T03:24:24;37.50;;;16.52;;
69226;SDS011;56334;52.398;7.552;2024-03-08T03:26:54;40.63;;;16.73;;
69226;SDS011;56334;52.398;7.552;2024-03-08T03:29:20;40.90;;;17.38;;
69226;SDS011;56334;52.398;7.552;2024-03-08T03:31:46;40.67;;;16.70;;
69226;SDS011;56334;52.398;7.552;2024-03-08T03:34:12;36.17;;;15.40;;
69226;SDS011;56334;52.398;7.552;2024-03-08T03:36:38;42.45;;;17.52;;
69226;SDS011;56334;52.398;7.552;2024-03-08T03:39:08;40.92;;;16.15;;
69226;SDS011;56334;52.398;7.552;2024-03-08T03:41:45;45.10;;;16.13;;
69226;SDS011;56334;52.398;7.552;2024-03-08T03:44:11;41.58;;;16.83;;
69226;SDS011;56334;52.398;7.552;2024-03-08T03:46:37;37.85;;;16.92;;
69226;SDS011;56334;52.398;7.552;2024-03-08T03:49:03;44.45;;;16.63;;
69226;SDS011;56334;52.398;7.552;2024-03-08T03:51:29;38.58;;;15.88;;
69226;SDS011;56334;52.398;7.552;2024-03-08T03:53:55;41.42;;;16.40;;
69226;SDS011;56334;52.398;7.552;2024-03-08T03:56:26;40.38;;;16.58;;
69226;SDS011;56334;52.398;7.552;2024-03-08T03:58:52;44.50;;;16.88;;
69226;SDS011;56334;52.398;7.552;2024-03-08T04:01:18;41.78;;;16.35;;
69226;SDS011;56334;52.398;7.552;2024-03-08T04:03:44;39.38;;;15.77;;
69226;SDS011;56334;52.398;7.552;2024-03-08T04:06:11;42.00;;;16.35;;
69226;SDS011;56334;52.398;7.552;2024-03-08T04:08:37;40.63;;;16.63;;
69226;SDS011;56334;52.398;7.552;2024-03-08T04:11:03;40.33;;;16.75;;
69226;SDS011;56334;52.398;7.552;2024-03-08T04:13:29;39.38;;;15.65;;
69226;SDS011;56334;52.398;7.552;2024-03-08T04:15:55;37.42;;;16.17;;
69226;SDS011;56334;52.398;7.552;2024-03-08T04:18:21;41.53;;;17.60;;
69226;SDS011;56334;52.398;7.552;2024-03-08T04:20:47;41.75;;;17.05;;
69226;SDS011;56334;52.398;7.552;2024-03-08T04:23:13;39.47;;;15.45;;
69226;SDS011;56334;52.398;7.552;2024-03-08T04:25:41;41.30;;;16.02;;
69226;SDS011;56334;52.398;7.552;2024-03-08T04:28:08;42.65;;;16.80;;
69226;SDS011;56334;52.398;7.552;2024-03-08T04:30:37;41.63;;;17.25;;
69226;SDS011;56334;52.398;7.552;2024-03-08T04:33:04;41.20;;;15.90;;
69226;SDS011;56334;52.398;7.552;2024-03-08T04:35:32;37.97;;;17.20;;
69226;SDS011;56334;52.398;7.552;2024-03-08T04:37:58;41.17;;;16.38;;
69226;SDS011;56334;52.398;7.552;2024-03-08T04:40:24;42.83;;;16.90;;
69226;SDS011;56334;52.398;7.552;2024-03-08T04:42:50;41.30;;;17.08;;
69226;SDS011;56334;52.398;7.552;2024-03-08T04:45:17;43.03;;;15.98;;
69226;SDS011;56334;52.398;7.552;2024-03-08T04:47:43;45.65;;;17.38;;
69226;SDS011;56334;52.398;7.552;2024-03-08T04:50:10;39.70;;;17.02;;
69226;SDS011;56334;52.398;7.552;2024-03-08T04:52:36;42.28;;;16.65;;
69226;SDS011;56334;52.398;7.552;2024-03-08T04:55:02;42.47;;;16.85;;
69226;SDS011;56334;52.398;7.552;2024-03-08T04:57:30;39.50;;;18.20;;
69226;SDS011;56334;52.398;7.552;2024-03-08T04:59:57;42.67;;;16.95;;
69226;SDS011;56334;52.398;7.552;2024-03-08T05:02:24;37.55;;;15.98;;
69226;SDS011;56334;52.398;7.552;2024-03-08T05:04:50;40.05;;;16.65;;
69226;SDS011;56334;52.398;7.552;2024-03-08T05:07:16;37.63;;;16.33;;
69226;SDS011;56334;52.398;7.552;2024-03-08T05:09:42;41.15;;;16.35;;
69226;SDS011;56334;52.398;7.552;2024-03-08T05:12:16;42.97;;;17.35;;
69226;SDS011;56334;52.398;7.552;2024-03-08T05:14:42;41.60;;;15.93;;
69226;SDS011;56334;52.398;7.552;2024-03-08T05:17:08;42.05;;;17.20;;
69226;SDS011;56334;52.398;7.552;2024-03-08T05:19:35;35.92;;;15.20;;
69226;SDS011;56334;52.398;7.552;2024-03-08T05:22:01;41.75;;;16.42;;
69226;SDS011;56334;52.398;7.552;2024-03-08T05:24:28;43.20;;;17.25;;
69226;SDS011;56334;52.398;7.552;2024-03-08T05:26:56;44.22;;;17.25;;
69226;SDS011;56334;52.398;7.552;2024-03-08T05:29:22;42.53;;;16.40;;
69226;SDS011;56334;52.398;7.552;2024-03-08T05:31:49;43.90;;;17.05;;
69226;SDS011;56334;52.398;7.552;2024-03-08T05:34:17;41.60;;;16.67;;
69226;SDS011;56334;52.398;7.552;2024-03-08T05:36:44;40.67;;;17.35;;
69226;SDS011;56334;52.398;7.552;2024-03-08T05:39:14;39.53;;;16.98;;
69226;SDS011;56334;52.398;7.552;2024-03-08T05:41:40;39.88;;;17.05;;
69226;SDS011;56334;52.398;7.552;2024-03-08T05:44:07;41.08;;;17.58;;
69226;SDS011;56334;52.398;7.552;2024-03-08T05:46:33;43.25;;;17.20;;
69226;SDS011;56334;52.398;7.552;2024-03-08T05:49:00;42.72;;;16.85;;
69226;SDS011;56334;52.398;7.552;2024-03-08T05:51:30;40.53;;;16.15;;
69226;SDS011;56334;52.398;7.552;2024-03-08T05:53:56;38.95;;;16.50;;
69226;SDS011;56334;52.398;7.552;2024-03-08T05:56:23;42.33;;;17.67;;
69226;SDS011;56334;52.398;7.552;2024-03-08T05:58:49;40.65;;;17.45;;
69226;SDS011;56334;52.398;7.552;2024-03-08T06:01:15;42.38;;;17.52;;
69226;SDS011;56334;52.398;7.552;2024-03-08T06:03:41;38.63;;;16.55;;
69226;SDS011;56334;52.398;7.552;2024-03-08T06:06:13;37.17;;;16.30;;
69226;SDS011;56334;52.398;7.552;2024-03-08T06:08:39;40.67;;;16.70;;
69226;SDS011;56334;52.398;7.552;2024-03-08T06:11:07;40.95;;;16.42;;
69226;SDS011;56334;52.398;7.552;2024-03-08T06:13:34;39.97;;;16.50;;
69226;SDS011;56334;52.398;7.552;2024-03-08T06:16:00;45.42;;;16.85;;
69226;SDS011;56334;52.398;7.552;2024-03-08T06:18:29;40.58;;;16.98;;
69226;SDS011;56334;52.398;7.552;2024-03-08T06:20:55;41.72;;;16.00;;
69226;SDS011;56334;52.398;7.552;2024-03-08T06:23:21;39.60;;;16.85;;
69226;SDS011;56334;52.398;7.552;2024-03-08T06:25:47;43.25;;;17.88;;
69226;SDS011;56334;52.398;7.552;2024-03-08T06:28:14;36.72;;;16.98;;
69226;SDS011;56334;52.398;7.552;2024-03-08T06:30:40;43.97;;;16.83;;
69226;SDS011;56334;52.398;7.552;2024-03-08T06:33:06;43.90;;;16.95;;
69226;SDS011;56334;52.398;7.552;2024-03-08T06:35:32;39.95;;;16.55;;
69226;SDS011;56334;52.398;7.552;2024-03-08T06:37:58;43.58;;;17.67;;
69226;SDS011;56334;52.398;7.552;2024-03-08T06:40:24;42.90;;;17.20;;
69226;SDS011;56334;52.398;7.552;2024-03-08T06:42:50;38.72;;;16.77;;
69226;SDS011;56334;52.398;7.552;2024-03-08T06:45:17;41.05;;;17.00;;
69226;SDS011;56334;52.398;7.552;2024-03-08T06:47:47;41.20;;;16.95;;
69226;SDS011;56334;52.398;7.552;2024-03-08T06:50:13;43.13;;;16.92;;
69226;SDS011;56334;52.398;7.552;2024-03-08T06:52:40;42.95;;;17.35;;
69226;SDS011;56334;52.398;7.552;2024-03-08T06:55:07;40.90;;;16.55;;
69226;SDS011;56334;52.398;7.552;2024-03-08T06:57:37;40.10;;;15.82;;
69226;SDS011;56334;52.398;7.552;2024-03-08T07:00:04;39.20;;;16.65;;
69226;SDS011;56334;52.398;7.552;2024-03-08T07:02:30;41.05;;;17.25;;
69226;SDS011;56334;52.398;7.552;2024-03-08T07:04:57;45.72;;;18.70;;
69226;SDS011;56334;52.398;7.552;2024-03-08T07:07:23;40.55;;;16.60;;
69226;SDS011;56334;52.398;7.552;2024-03-08T07:09:49;44.03;;;16.98;;
69226;SDS011;56334;52.398;7.552;2024-03-08T07:12:15;43.58;;;17.98;;
69226;SDS011;56334;52.398;7.552;2024-03-08T07:14:42;41.45;;;17.30;;
69226;SDS011;56334;52.398;7.552;2024-03-08T07:17:10;46.28;;;17.48;;
69226;SDS011;56334;52.398;7.552;2024-03-08T07:19:36;41.25;;;16.63;;
69226;SDS011;56334;52.398;7.552;2024-03-08T07:22:03;43.00;;;17.33;;
69226;SDS011;56334;52.398;7.552;2024-03-08T07:24:30;41.90;;;18.83;;
69226;SDS011;56334;52.398;7.552;2024-03-08T07:27:02;42.83;;;17.92;;
69226;SDS011;56334;52.398;7.552;2024-03-08T07:29:30;42.25;;;17.38;;
69226;SDS011;56334;52.398;7.552;2024-03-08T07:31:56;46.10;;;18.35;;
69226;SDS011;56334;52.398;7.552;2024-03-08T07:34:25;39.08;;;17.67;;
69226;SDS011;56334;52.398;7.552;2024-03-08T07:36:51;40.65;;;16.20;;
69226;SDS011;56334;52.398;7.552;2024-03-08T07:39:17;44.17;;;17.92;;
69226;SDS011;56334;52.398;7.552;2024-03-08T07:41:44;42.42;;;17.67;;
69226;SDS011;56334;52.398;7.552;2024-03-08T07:44:10;38.35;;;17.50;;
69226;SDS011;56334;52.398;7.552;2024-03-08T07:46:36;39.17;;;16.58;;
69226;SDS011;56334;52.398;7.552;2024-03-08T07:49:02;43.28;;;17.88;;
69226;SDS011;56334;52.398;7.552;2024-03-08T07:51:28;45.35;;;17.95;;
69226;SDS011;56334;52.398;7.552;2024-03-08T07:53:55;43.70;;;18.20;;
69226;SDS011;56334;52.398;7.552;2024-03-08T07:56:22;35.83;;;15.88;;
69226;SDS011;56334;52.398;7.552;2024-03-08T07:58:48;35.95;;;16.17;;
69226;SDS011;56334;52.398;7.552;2024-03-08T08:01:17;40.25;;;16.42;;
69226;SDS011;56334;52.398;7.552;2024-03-08T08:03:43;40.55;;;17.33;;
69226;SDS011;56334;52.398;7.552;2024-03-08T08:06:09;41.28;;;16.77;;
69226;SDS011;56334;52.398;7.552;2024-03-08T08:08:41;38.72;;;16.98;;
69226;SDS011;56334;52.398;7.552;2024-03-08T08:11:07;40.67;;;17.65;;
69226;SDS011;56334;52.398;7.552;2024-03-08T08:13:33;40.13;;;15.75;;
69226;SDS011;56334;52.398;7.552;2024-03-08T08:16:01;41.00;;;17.48;;
69226;SDS011;56334;52.398;7.552;2024-03-08T08:18:27;38.90;;;16.80;;
69226;SDS011;56334;52.398;7.552;2024-03-08T08:20:54;39.13;;;17.02;;
69226;SDS011;56334;52.398;7.552;2024-03-08T08:23:20;34.53;;;15.93;;
69226;SDS011;56334;52.398;7.552;2024-03-08T08:25:46;37.50;;;17.80;;
69226;SDS011;56334;52.398;7.552;2024-03-08T08:28:16;41.83;;;17.92;;
69226;SDS011;56334;52.398;7.552;2024-03-08T08:30:45;40.28;;;15.60;;
69226;SDS011;56334;52.398;7.552;2024-03-08T08:33:11;40.50;;;17.30;;
69226;SDS011;56334;52.398;7.552;2024-03-08T08:35:38;37.83;;;17.23;;
69226;SDS011;56334;52.398;7.552;2024-03-08T08:38:04;38.90;;;16.50;;
69226;SDS011;56334;52.398;7.552;2024-03-08T08:40:32;41.83;;;17.98;;
69226;SDS011;56334;52.398;7.552;2024-03-08T08:42:58;37.45;;;16.90;;
69226;SDS011;56334;52.398;7.552;2024-03-08T08:45:25;38.55;;;17.98;;
69226;SDS011;56334;52.398;7.552;2024-03-08T08:47:51;38.40;;;17.45;;
69226;SDS011;56334;52.398;7.552;2024-03-08T08:50:17;37.45;;;16.83;;
69226;SDS011;56334;52.398;7.552;2024-03-08T08:52:50;40.63;;;17.27;;
69226;SDS011;56334;52.398;7.552;2024-03-08T08:55:16;40.88;;;16.70;;
69226;SDS011;56334;52.398;7.552;2024-03-08T08:57:45;37.85;;;16.85;;
69226;SDS011;56334;52.398;7.552;2024-03-08T09:00:12;35.50;;;16.08;;
69226;SDS011;56334;52.398;7.552;2024-03-08T09:02:42;41.70;;;17.85;;
69226;SDS011;56334;52.398;7.552;2024-03-08T09:05:08;38.70;;;17.10;;
69226;SDS011;56334;52.398;7.552;2024-03-08T09:07:34;35.53;;;17.08;;
69226;SDS011;56334;52.398;7.552;2024-03-08T09:10:00;37.45;;;17.30;;
69226;SDS011;56334;52.398;7.552;2024-03-08T09:12:27;42.08;;;17.52;;
69226;SDS011;56334;52.398;7.552;2024-03-08T09:14:53;39.08;;;18.13;;
69226;SDS011;56334;52.398;7.552;2024-03-08T09:17:20;37.92;;;17.25;;
69226;SDS011;56334;52.398;7.552;2024-03-08T09:19:47;36.75;;;15.68;;
69226;SDS011;56334;52.398;7.552;2024-03-08T09:22:13;37.90;;;17.65;;
69226;SDS011;56334;52.398;7.552;2024-03-08T09:24:39;35.65;;;16.90;;
69226;SDS011;56334;52.398;7.552;2024-03-08T09:27:05;35.20;;;16.35;;
69226;SDS011;56334;52.398;7.552;2024-03-08T09:29:31;38.20;;;17.05;;
69226;SDS011;56334;52.398;7.552;2024-03-08T09:31:57;39.63;;;17.42;;
69226;SDS011;56334;52.398;7.552;2024-03-08T09:34:23;36.30;;;17.90;;
69226;SDS011;56334;52.398;7.552;2024-03-08T09:36:49;37.15;;;17.42;;
69226;SDS011;56334;52.398;7.552;2024-03-08T09:39:17;36.85;;;17.35;;
69226;SDS011;56334;52.398;7.552;2024-03-08T09:41:46;33.67;;;16.08;;
69226;SDS011;56334;52.398;7.552;2024-03-08T09:44:13;35.83;;;16.92;;
69226;SDS011;56334;52.398;7.552;2024-03-08T09:46:39;40.05;;;19.77;;
69226;SDS011;56334;52.398;7.552;2024-03-08T09:49:06;40.80;;;23.17;;
69226;SDS011;56334;52.398;7.552;2024-03-08T09:51:33;37.53;;;18.20;;
69226;SDS011;56334;52.398;7.552;2024-03-08T09:54:00;32.42;;;16.08;;
69226;SDS011;56334;52.398;7.552;2024-03-08T09:56:29;38.72;;;17.00;;
69226;SDS011;56334;52.398;7.552;2024-03-08T09:58:57;39.72;;;17.48;;
69226;SDS011;56334;52.398;7.552;2024-03-08T10:01:42;37.38;;;17.48;;
69226;SDS011;56334;52.398;7.552;2024-03-08T10:04:09;38.25;;;17.58;;
69226;SDS011;56334;52.398;7.552;2024-03-08T10:06:35;37.58;;;17.17;;
69226;SDS011;56334;52.398;7.552;2024-03-08T10:09:02;35.92;;;17.35;;
69226;SDS011;56334;52.398;7.552;2024-03-08T10:11:31;34.97;;;16.48;;
69226;SDS011;56334;52.398;7.552;2024-03-08T10:13:57;33.55;;;16.67;;
69226;SDS011;56334;52.398;7.552;2024-03-08T10:16:25;33.20;;;15.38;;
69226;SDS011;56334;52.398;7.552;2024-03-08T10:18:51;35.03;;;16.95;;
69226;SDS011;56334;52.398;7.552;2024-03-08T10:21:18;37.78;;;16.55;;
69226;SDS011;56334;52.398;7.552;2024-03-08T10:23:44;35.95;;;16.00;;
69226;SDS011;56334;52.398;7.552;2024-03-08T10:26:14;36.00;;;15.82;;
69226;SDS011;56334;52.398;7.552;2024-03-08T10:28:44;34.17;;;16.60;;
69226;SDS011;56334;52.398;7.552;2024-03-08T10:31:10;35.95;;;17.08;;
69226;SDS011;56334;52.398;7.552;2024-03-08T10:33:37;38.45;;;17.02;;
69226;SDS011;56334;52.398;7.552;2024-03-08T10:36:05;35.60;;;16.90;;
69226;SDS011;56334;52.398;7.552;2024-03-08T10:38:31;35.80;;;16.95;;
69226;SDS011;56334;52.398;7.552;2024-03-08T10:40:58;35.25;;;15.50;;
69226;SDS011;56334;52.398;7.552;2024-03-08T10:43:25;32.38;;;15.02;;
69226;SDS011;56334;52.398;7.552;2024-03-08T10:45:56;31.92;;;15.38;;
69226;SDS011;56334;52.398;7.552;2024-03-08T10:48:28;34.60;;;15.90;;
69226;SDS011;56334;52.398;7.552;2024-03-08T10:51:06;33.20;;;15.32;;
69226;SDS011;56334;52.398;7.552;2024-03-08T10:53:36;35.03;;;15.60;;
69226;SDS011;56334;52.398;7.552;2024-03-08T10:56:06;33.30;;;16.58;;
69226;SDS011;56334;52.398;7.552;2024-03-08T10:58:32;34.67;;;15.95;;
69226;SDS011;56334;52.398;7.552;2024-03-08T11:01:00;34.90;;;16.23;;
69226;SDS011;56334;52.398;7.552;2024-03-08T11:08:42;32.38;;;15.75;;
69226;SDS011;56334;52.398;7.552;2024-03-08T11:11:24;35.55;;;16.20;;
69226;SDS011;56334;52.398;7.552;2024-03-08T11:13:57;32.83;;;15.60;;
69226;SDS011;56334;52.398;7.552;2024-03-08T11:18:54;31.67;;;15.07;;
69226;SDS011;56334;52.398;7.552;2024-03-08T11:21:20;30.38;;;14.80;;
69226;SDS011;56334;52.398;7.552;2024-03-08T11:24:00;32.10;;;16.05;;
69226;SDS011;56334;52.398;7.552;2024-03-08T11:26:26;36.20;;;16.52;;
69226;SDS011;56334;52.398;7.552;2024-03-08T11:28:52;31.50;;;16.15;;
69226;SDS011;56334;52.398;7.552;2024-03-08T11:33:46;34.08;;;16.25;;
69226;SDS011;56334;52.398;7.552;2024-03-08T11:36:20;35.55;;;16.13;;
69226;SDS011;56334;52.398;7.552;2024-03-08T11:38:47;33.85;;;15.05;;
69226;SDS011;56334;52.398;7.552;2024-03-08T11:41:24;31.05;;;15.50;;
69226;SDS011;56334;52.398;7.552;2024-03-08T11:44:05;34.45;;;16.33;;
69226;SDS011;56334;52.398;7.552;2024-03-08T11:46:32;31.98;;;15.68;;
69226;SDS011;56334;52.398;7.552;2024-03-08T11:48:59;31.80;;;15.43;;
69226;SDS011;56334;52.398;7.552;2024-03-08T11:51:25;32.55;;;15.93;;
69226;SDS011;56334;52.398;7.552;2024-03-08T11:53:51;31.85;;;15.05;;
69226;SDS011;56334;52.398;7.552;2024-03-08T11:56:18;33.33;;;15.75;;
69226;SDS011;56334;52.398;7.552;2024-03-08T11:58:53;34.33;;;15.75;;
69226;SDS011;56334;52.398;7.552;2024-03-08T12:01:23;32.40;;;15.95;;
69226;SDS011;56334;52.398;7.552;2024-03-08T12:03:56;31.88;;;15.98;;
69226;SDS011;56334;52.398;7.552;2024-03-08T12:06:25;32.20;;;15.50;;
69226;SDS011;56334;52.398;7.552;2024-03-08T12:08:52;31.88;;;15.02;;
69226;SDS011;56334;52.398;7.552;2024-03-08T12:11:20;32.30;;;15.73;;
69226;SDS011;56334;52.398;7.552;2024-03-08T12:13:48;28.75;;;14.88;;
69226;SDS011;56334;52.398;7.552;2024-03-08T12:16:16;29.67;;;13.88;;
69226;SDS011;56334;52.398;7.552;2024-03-08T12:18:50;30.25;;;14.18;;
69226;SDS011;56334;52.398;7.552;2024-03-08T12:21:17;32.13;;;15.70;;
69226;SDS011;56334;52.398;7.552;2024-03-08T12:23:45;29.60;;;14.68;;
69226;SDS011;56334;52.398;7.552;2024-03-08T12:26:16;31.60;;;14.13;;
69226;SDS011;56334;52.398;7.552;2024-03-08T12:28:42;28.92;;;13.98;;
69226;SDS011;56334;52.398;7.552;2024-03-08T12:31:09;30.20;;;14.73;;
69226;SDS011;56334;52.398;7.552;2024-03-08T12:33:47;28.58;;;14.20;;
69226;SDS011;56334;52.398;7.552;2024-03-08T12:36:16;29.67;;;14.73;;
69226;SDS011;56334;52.398;7.552;2024-03-08T12:41:09;30.30;;;15.05;;
69226;SDS011;56334;52.398;7.552;2024-03-08T12:43:35;28.05;;;14.60;;
69226;SDS011;56334;52.398;7.552;2024-03-08T12:46:01;28.85;;;13.77;;
69226;SDS011;56334;52.398;7.552;2024-03-08T12:48:33;29.60;;;14.50;;
69226;SDS011;56334;52.398;7.552;2024-03-08T12:51:00;30.70;;;14.65;;
69226;SDS011;56334;52.398;7.552;2024-03-08T12:53:26;29.10;;;15.20;;
69226;SDS011;56334;52.398;7.552;2024-03-08T12:55:54;30.02;;;14.15;;
69226;SDS011;56334;52.398;7.552;2024-03-08T12:58:21;29.80;;;15.38;;
69226;SDS011;56334;52.398;7.552;2024-03-08T13:00:47;29.65;;;14.00;;
69226;SDS011;56334;52.398;7.552;2024-03-08T13:03:14;30.20;;;14.48;;
69226;SDS011;56334;52.398;7.552;2024-03-08T13:05:41;29.02;;;14.23;;
69226;SDS011;56334;52.398;7.552;2024-03-08T13:08:07;27.38;;;14.57;;
69226;SDS011;56334;52.398;7.552;2024-03-08T13:10:41;29.50;;;14.23;;
69226;SDS011;56334;52.398;7.552;2024-03-08T13:13:11;28.25;;;14.07;;
69226;SDS011;56334;52.398;7.552;2024-03-08T13:15:40;30.17;;;14.93;;
69226;SDS011;56334;52.398;7.552;2024-03-08T13:18:07;30.40;;;14.98;;
69226;SDS011;56334;52.398;7.552;2024-03-08T13:20:35;30.27;;;14.43;;
69226;SDS011;56334;52.398;7.552;2024-03-08T13:23:04;29.15;;;13.90;;
69226;SDS011;56334;52.398;7.552;2024-03-08T13:25:30;30.98;;;15.15;;
69226;SDS011;56334;52.398;7.552;2024-03-08T13:27:56;29.75;;;13.73;;
69226;SDS011;56334;52.398;7.552;2024-03-08T13:30:24;29.40;;;14.95;;
69226;SDS011;56334;52.398;7.552;2024-03-08T13:32:52;31.65;;;14.60;;
69226;SDS011;56334;52.398;7.552;2024-03-08T13:35:19;30.88;;;14.63;;
69226;SDS011;56334;52.398;7.552;2024-03-08T13:37:49;26.95;;;13.55;;
69226;SDS011;56334;52.398;7.552;2024-03-08T13:40:15;26.85;;;13.88;;
69226;SDS011;56334;52.398;7.552;2024-03-08T13:42:43;28.13;;;14.23;;
69226;SDS011;56334;52.398;7.552;2024-03-08T13:45:10;28.10;;;13.90;;
69226;SDS011;56334;52.398;7.552;2024-03-08T13:47:36;31.65;;;15.15;;
69226;SDS011;56334;52.398;7.552;2024-03-08T13:50:04;28.02;;;14.55;;
69226;SDS011;56334;52.398;7.552;2024-03-08T13:52:32;28.35;;;14.77;;
69226;SDS011;56334;52.398;7.552;2024-03-08T13:57:25;26.70;;;13.40;;
69226;SDS011;56334;52.398;7.552;2024-03-08T13:59:52;27.17;;;13.30;;
69226;SDS011;56334;52.398;7.552;2024-03-08T14:02:18;27.30;;;14.35;;
69226;SDS011;56334;52.398;7.552;2024-03-08T14:04:47;26.83;;;13.98;;
69226;SDS011;56334;52.398;7.552;2024-03-08T14:07:14;27.13;;;13.65;;
69226;SDS011;56334;52.398;7.552;2024-03-08T14:09:41;26.73;;;13.38;;
69226;SDS011;56334;52.398;7.552;2024-03-08T14:14:34;26.70;;;13.30;;
69226;SDS011;56334;52.398;7.552;2024-03-08T14:17:01;29.63;;;13.60;;
69226;SDS011;56334;52.398;7.552;2024-03-08T14:19:30;28.92;;;13.82;;
69226;SDS011;56334;52.398;7.552;2024-03-08T14:21:56;28.52;;;14.35;;
69226;SDS011;56334;52.398;7.552;2024-03-08T14:24:24;29.08;;;14.65;;
69226;SDS011;56334;52.398;7.552;2024-03-08T14:26:50;29.98;;;15.20;;
69226;SDS011;56334;52.398;7.552;2024-03-08T14:29:16;28.33;;;14.38;;
69226;SDS011;56334;52.398;7.552;2024-03-08T14:31:43;30.20;;;14.98;;
69226;SDS011;56334;52.398;7.552;2024-03-08T14:34:10;30.77;;;15.07;;
69226;SDS011;56334;52.398;7.552;2024-03-08T14:36:36;27.85;;;13.70;;
69226;SDS011;56334;52.398;7.552;2024-03-08T14:41:28;28.40;;;14.05;;
69226;SDS011;56334;52.398;7.552;2024-03-08T14:43:55;27.75;;;13.98;;